createdAt,value
2018-06-28T00:03:49.653Z,72.60
2018-06-28T00:08:44.129Z,73.10
2018-06-28T00:13:38.642Z,73.40
2018-06-28T00:18:33.049Z,73.30
2018-06-28T00:23:27.464Z,73.80
2018-06-28T00:28:21.925Z,75.30
2018-06-28T00:33:16.414Z,76.10
2018-06-28T00:38:10.868Z,77.30
2018-06-28T00:43:05.339Z,78.40
2018-06-28T00:47:59.812Z,79.00
2018-06-28T00:52:54.277Z,79.40
2018-06-28T00:57:48.777Z,79.80
2018-06-28T01:02:43.261Z,80.60
2018-06-28T01:07:37.693Z,81.00
2018-06-28T01:12:32.160Z,81.80
2018-06-28T01:17:26.633Z,82.00
2018-06-28T01:22:21.149Z,82.90
2018-06-28T01:27:15.682Z,82.30
2018-06-28T01:32:10.229Z,82.10
2018-06-28T01:37:04.783Z,81.70
2018-06-28T01:42:16.094Z,81.20
2018-06-28T01:47:10.618Z,81.70
2018-06-28T01:56:59.317Z,83.30
2018-06-28T02:01:53.837Z,83.10
2018-06-28T02:06:48.324Z,84.00
2018-06-28T02:11:42.761Z,83.80
2018-06-28T02:16:37.264Z,83.60
2018-06-28T02:21:31.682Z,83.40
2018-06-28T02:26:26.152Z,83.20
2018-06-28T02:31:20.631Z,83.10
2018-06-28T02:36:15.140Z,83.60
2018-06-28T02:41:09.663Z,83.10
2018-06-28T02:46:04.233Z,83.10
2018-06-28T02:50:58.689Z,82.80
2018-06-28T02:55:53.244Z,81.80
2018-06-28T03:00:47.761Z,82.10
2018-06-28T03:05:42.288Z,82.90
2018-06-28T03:10:36.737Z,82.40
2018-06-28T03:15:31.215Z,84.20
2018-06-28T03:20:25.700Z,85.30
2018-06-28T03:30:14.317Z,85.40
2018-06-28T03:35:08.873Z,85.50
2018-06-28T03:40:03.437Z,85.80
2018-06-28T03:44:57.966Z,85.90
2018-06-28T03:49:52.418Z,86.70
2018-06-28T03:54:46.881Z,86.90
2018-06-28T03:59:41.373Z,86.00
2018-06-28T04:04:35.841Z,82.60
2018-06-28T04:09:30.296Z,78.30
2018-06-28T04:14:24.778Z,74.00
2018-06-28T04:19:19.289Z,68.40
2018-06-28T04:24:13.746Z,64.20
2018-06-28T04:29:08.251Z,61.00
2018-06-28T04:34:02.750Z,59.00
2018-06-28T04:38:57.207Z,58.20
2018-06-28T04:43:51.681Z,56.50
2018-06-28T04:48:46.117Z,53.70
2018-06-28T04:53:40.627Z,52.00
2018-06-28T04:58:36.414Z,51.40
2018-06-28T05:03:30.862Z,50.60
2018-06-28T05:08:25.372Z,49.20
2018-06-28T05:13:19.953Z,52.30
2018-06-28T05:18:14.498Z,55.90
2018-06-28T05:23:09.074Z,57.00
2018-06-28T05:28:03.516Z,55.10
2018-06-28T05:32:57.978Z,58.70
2018-06-28T05:42:57.704Z,63.00
2018-06-28T05:47:52.251Z,63.70
2018-06-28T05:52:46.716Z,64.90
2018-06-28T05:57:41.257Z,64.80
2018-06-28T06:02:35.740Z,67.90
2018-06-28T06:07:30.540Z,71.40
2018-06-28T06:12:24.980Z,74.30
2018-06-28T06:22:13.861Z,73.10
2018-06-28T06:27:09.146Z,74.30
2018-06-28T06:32:03.830Z,74.50
2018-06-28T06:36:58.349Z,74.80
2018-06-28T06:41:52.964Z,76.00
2018-06-28T06:46:47.474Z,76.30
2018-06-28T06:51:42.260Z,76.10
2018-06-28T06:56:36.829Z,76.40
2018-06-28T07:01:32.374Z,74.30
2018-06-28T07:06:27.032Z,74.10
2018-06-28T07:11:21.808Z,75.00
2018-06-28T07:16:16.792Z,76.20
2018-06-28T07:21:11.456Z,75.90
2018-06-28T07:26:22.443Z,75.50
2018-06-28T07:31:24.569Z,76.00
2018-06-28T07:36:19.125Z,73.30
2018-06-28T07:41:13.693Z,72.60
2018-06-28T07:46:09.384Z,74.50
2018-06-28T07:51:04.023Z,74.80
2018-06-28T07:56:07.072Z,75.30
2018-06-28T08:01:01.698Z,74.80
2018-06-28T08:05:56.422Z,74.20
2018-06-28T08:10:51.645Z,73.80
2018-06-28T08:15:48.237Z,74.60
2018-06-28T08:20:42.906Z,73.50
2018-06-28T08:25:37.397Z,74.50
2018-06-28T08:30:31.871Z,74.60
2018-06-28T08:35:26.452Z,74.40
2018-06-28T08:40:21.340Z,73.50
2018-06-28T08:45:16.165Z,73.70
2018-06-28T08:50:12.226Z,72.90
2018-06-28T08:55:08.277Z,73.00
2018-06-28T09:00:04.033Z,71.90
2018-06-28T09:05:18.542Z,69.30
2018-06-28T09:10:18.162Z,71.70
2018-06-28T09:15:13.889Z,71.80
2018-06-28T09:20:08.490Z,73.00
2018-06-28T09:25:03.059Z,70.30
2018-06-28T09:29:57.643Z,69.40
2018-06-28T09:34:52.378Z,68.60
2018-06-28T09:39:48.012Z,70.00
2018-06-28T09:44:43.776Z,71.20
2018-06-28T09:54:34.299Z,71.90
2018-06-28T09:59:29.457Z,72.00
2018-06-28T10:04:25.271Z,70.80
2018-06-28T10:09:30.903Z,70.50
2018-06-28T10:14:30.241Z,69.50
2018-06-28T10:19:24.789Z,70.30
2018-06-28T10:24:19.361Z,69.30
2018-06-28T10:29:13.931Z,69.20
2018-06-28T10:34:09.462Z,69.40
2018-06-28T10:39:06.778Z,68.50
2018-06-28T10:44:01.606Z,69.10
2018-06-28T10:48:56.378Z,69.00
2018-06-28T10:53:50.964Z,69.90
2018-06-28T10:58:45.741Z,69.30
2018-06-28T11:03:42.517Z,70.60
2018-06-28T11:08:37.301Z,72.20
2018-06-28T11:13:35.998Z,73.60
2018-06-28T11:18:30.962Z,74.10
2018-06-28T11:23:25.474Z,78.20
2018-06-28T11:28:20.377Z,86.20
2018-06-28T11:33:15.969Z,89.10
2018-06-28T11:38:10.960Z,90.40
2018-06-28T11:43:09.236Z,89.00
2018-06-28T11:48:04.522Z,89.60
2018-06-28T11:53:03.581Z,87.00
2018-06-28T11:57:58.310Z,83.80
2018-06-28T12:03:13.883Z,82.70
2018-06-28T12:08:08.423Z,80.40
2018-06-28T12:13:03.164Z,78.90
2018-06-28T12:22:51.891Z,78.70
2018-06-28T12:27:46.415Z,77.40
2018-06-28T12:32:41.015Z,73.10
2018-06-28T12:37:35.647Z,71.50
2018-06-28T12:42:30.404Z,70.00
2018-06-28T12:48:14.257Z,69.80
2018-06-28T12:53:12.640Z,69.80
2018-06-28T12:58:31.785Z,69.50
2018-06-28T13:03:26.745Z,70.00
2018-06-28T13:08:21.194Z,72.20
2018-06-28T13:13:15.726Z,73.10
2018-06-28T13:18:10.223Z,75.00
2018-06-28T13:23:04.936Z,73.70
2018-06-28T13:27:59.516Z,71.40
2018-06-28T13:32:54.084Z,71.80
2018-06-28T13:37:48.671Z,69.60
2018-06-28T13:42:43.429Z,70.70
2018-06-28T13:47:38.076Z,68.90
2018-06-28T13:52:33.220Z,69.10
2018-06-28T13:57:27.844Z,70.60
2018-06-28T14:02:22.529Z,73.90
2018-06-28T14:07:17.193Z,75.10
2018-06-28T14:12:11.787Z,75.30
2018-06-28T14:17:06.404Z,75.10
2018-06-28T14:22:00.981Z,76.50
2018-06-28T14:27:19.546Z,77.20
2018-06-28T14:32:17.544Z,77.80
2018-06-28T14:42:12.893Z,79.50
2018-06-28T14:47:08.365Z,81.20
2018-06-28T14:52:03.105Z,81.90
2018-06-28T14:56:57.684Z,82.30
2018-06-28T15:01:52.161Z,84.50
2018-06-28T15:06:46.718Z,85.20
2018-06-28T15:11:41.775Z,85.10
2018-06-28T15:16:36.655Z,85.90
2018-06-28T15:21:31.266Z,84.90
2018-06-28T15:26:25.797Z,83.80
2018-06-28T15:31:20.271Z,81.30
2018-06-28T15:36:14.967Z,81.80
2018-06-28T15:41:09.556Z,81.40
2018-06-28T15:46:04.125Z,82.10
2018-06-28T15:50:58.616Z,82.90
2018-06-28T15:55:53.100Z,82.60
2018-06-28T16:00:47.633Z,82.70
2018-06-28T16:05:42.132Z,83.40
2018-06-28T16:10:36.609Z,83.70
2018-06-28T16:15:31.105Z,83.70
2018-06-28T16:20:25.661Z,83.30
2018-06-28T16:25:20.168Z,84.20
2018-06-28T16:30:14.665Z,84.10
2018-06-28T16:35:09.126Z,83.90
2018-06-28T16:40:03.777Z,83.30
2018-06-28T16:44:58.336Z,83.00
2018-06-28T16:49:52.808Z,83.00
2018-06-28T16:54:47.315Z,83.60
2018-06-28T17:04:35.944Z,84.60
2018-06-28T17:09:30.416Z,84.00
2018-06-28T17:14:24.985Z,84.70
2018-06-28T17:19:19.421Z,84.40
2018-06-28T17:24:13.883Z,85.90
2018-06-28T17:29:08.371Z,86.50
2018-06-28T17:34:02.925Z,87.60
2018-06-28T17:38:57.529Z,88.40
2018-06-28T17:43:52.089Z,89.70
2018-06-28T17:48:46.553Z,90.70
2018-06-28T17:53:41.015Z,91.10
2018-06-28T17:58:35.416Z,90.90
2018-06-28T18:03:29.983Z,91.10
2018-06-28T18:08:24.444Z,91.50
2018-06-28T18:13:18.978Z,91.80
2018-06-28T18:18:13.565Z,92.70
2018-06-28T18:23:11.126Z,94.20
2018-06-28T18:28:05.664Z,95.60
2018-06-28T18:33:01.033Z,95.60
2018-06-28T18:37:55.589Z,96.70
2018-06-28T18:42:53.486Z,98.10
2018-06-28T18:47:56.421Z,98.30
2018-06-28T18:52:51.577Z,99.10
2018-06-28T18:57:47.575Z,98.80
2018-06-28T19:02:42.905Z,98.80
2018-06-28T19:07:37.839Z,98.70
2018-06-28T19:12:32.503Z,98.90
2018-06-28T19:17:27.188Z,99.50
2018-06-28T19:22:26.930Z,98.90
2018-06-28T19:27:21.600Z,98.40
2018-06-28T19:32:22.201Z,97.20
2018-06-28T19:37:21.856Z,97.70
2018-06-28T19:42:29.490Z,97.70
2018-06-28T19:47:23.991Z,97.40
2018-06-28T19:52:23.565Z,97.50
2018-06-28T19:57:18.147Z,98.80
2018-06-28T20:02:17.846Z,96.70
2018-06-28T20:07:12.408Z,97.00
2018-06-28T20:12:11.133Z,98.30
2018-06-28T20:17:10.652Z,98.70
2018-06-28T20:22:05.322Z,99.10
2018-06-28T20:27:04.801Z,99.10
2018-06-28T20:32:04.354Z,99.30
2018-06-28T20:36:58.859Z,99.20
2018-06-28T20:41:53.340Z,99.70
2018-06-28T20:51:41.998Z,99.60
2018-06-28T20:56:36.694Z,99.90
2018-06-28T21:01:31.278Z,99.90
2018-06-28T21:06:25.769Z,99.90
2018-06-28T21:16:14.505Z,99.90
2018-06-28T21:21:09.144Z,99.80
2018-06-28T21:26:03.582Z,99.80
2018-06-28T21:30:58.037Z,99.60
2018-06-28T21:35:52.596Z,99.30
2018-06-28T21:40:47.040Z,99.90
2018-06-28T21:45:41.737Z,99.90
2018-06-28T21:50:36.271Z,99.80
2018-06-28T21:55:32.031Z,99.80
2018-06-28T22:00:33.575Z,99.90
2018-06-28T22:05:28.147Z,99.90
2018-06-28T22:10:22.612Z,99.80
2018-06-28T22:15:25.237Z,99.90
2018-06-28T22:20:19.810Z,99.90
2018-06-28T22:25:14.277Z,99.90
2018-06-28T22:30:08.841Z,99.90
2018-06-28T22:35:03.305Z,99.70
2018-06-28T22:39:57.900Z,99.90
2018-06-28T22:44:52.348Z,99.90
2018-06-28T22:49:46.894Z,99.90
2018-06-28T22:54:41.335Z,99.90
2018-06-28T22:59:35.800Z,99.90
2018-06-28T23:04:30.245Z,99.90
2018-06-28T23:09:24.717Z,99.90
2018-06-28T23:14:19.201Z,99.90
2018-06-28T23:19:13.758Z,99.90
2018-06-28T23:24:08.229Z,99.90
2018-06-28T23:29:02.747Z,99.90
2018-06-28T23:33:57.229Z,99.90
2018-06-28T23:38:51.665Z,99.90
2018-06-28T23:43:46.177Z,99.90
2018-06-28T23:48:40.621Z,99.90
2018-06-28T23:53:35.116Z,99.90
2018-06-28T23:58:29.555Z,99.90
